createdAt,value
2023-06-04T00:00:41.318Z,53.65
2023-06-04T00:01:41.417Z,53.55
2023-06-04T00:02:41.466Z,54.97
2023-06-04T00:03:41.472Z,52.44
2023-06-04T00:04:41.374Z,53.45
2023-06-04T00:05:41.340Z,56.48
2023-06-04T00:06:41.247Z,52.64
2023-06-04T00:07:41.222Z,53.55
2023-06-04T00:08:41.275Z,52.54
2023-06-04T00:09:41.227Z,53.55
2023-06-04T00:10:41.220Z,53.75
2023-06-04T00:11:41.291Z,53.75
2023-06-04T00:12:41.272Z,53.96
2023-06-04T00:13:41.172Z,53.78
2023-06-04T00:14:41.160Z,53.47
2023-06-04T00:15:41.199Z,53.58
2023-06-04T00:16:41.156Z,54.59
2023-06-04T00:17:41.160Z,55.60
2023-06-04T00:18:41.097Z,54.18
2023-06-04T00:19:41.104Z,55.10
2023-06-04T00:20:41.102Z,55.19
2023-06-04T00:21:41.051Z,55.70
2023-06-04T00:22:41.294Z,53.67
2023-06-04T00:23:41.047Z,52.76
2023-06-04T00:24:41.058Z,52.86
2023-06-04T00:25:41.005Z,54.99
2023-06-04T00:26:40.993Z,54.28
2023-06-04T00:27:40.983Z,53.98
2023-06-04T00:28:40.981Z,55.60
2023-06-04T00:29:40.965Z,56.01
2023-06-04T00:30:40.972Z,55.02
2023-06-04T00:31:41.007Z,56.13
2023-06-04T00:32:40.964Z,55.83
2023-06-04T00:33:40.881Z,54.61
2023-06-04T00:34:40.891Z,55.52
2023-06-04T00:35:40.887Z,56.95
2023-06-04T00:36:40.909Z,57.55
2023-06-04T00:37:40.823Z,55.83
2023-06-04T00:38:40.839Z,57.04
2023-06-04T00:39:40.835Z,54.61
2023-06-04T00:40:40.852Z,55.04
2023-06-04T00:41:40.772Z,56.57
2023-06-04T00:42:40.857Z,55.65
2023-06-04T00:43:40.767Z,53.83
2023-06-04T00:44:40.814Z,54.44
2023-06-04T00:45:40.785Z,56.57
2023-06-04T00:46:40.739Z,55.15
2023-06-04T00:47:40.783Z,56.87
2023-06-04T00:48:40.698Z,56.57
2023-06-04T00:49:40.747Z,57.07
2023-06-04T00:50:40.682Z,55.76
2023-06-04T00:51:40.655Z,57.07
2023-06-04T00:52:40.686Z,57.88
2023-06-04T00:53:40.621Z,57.68
2023-06-04T00:54:40.719Z,55.47
2023-06-04T00:55:40.621Z,55.88
2023-06-04T00:56:40.588Z,55.68
2023-06-04T00:57:40.632Z,57.40
2023-06-04T00:58:40.559Z,56.29
2023-06-04T00:59:40.579Z,56.09
2023-06-04T01:00:40.551Z,57.91
2023-06-04T01:01:40.593Z,56.90
2023-06-04T01:02:40.641Z,56.49
2023-06-04T01:03:40.538Z,55.98
2023-06-04T01:04:40.532Z,57.30
2023-06-04T01:05:40.483Z,57.50
2023-06-04T01:06:40.492Z,57.71
2023-06-04T01:07:40.455Z,57.40
2023-06-04T01:08:40.472Z,57.60
2023-06-04T01:09:40.473Z,57.81
2023-06-04T01:10:40.416Z,56.82
2023-06-04T01:11:40.435Z,56.01
2023-06-04T01:12:40.423Z,57.93
2023-06-04T01:13:40.435Z,55.50
2023-06-04T01:14:40.393Z,56.11
2023-06-04T01:15:40.340Z,55.40
2023-06-04T01:16:40.432Z,57.12
2023-06-04T01:17:40.349Z,56.11
2023-06-04T01:18:40.337Z,55.80
2023-06-04T01:19:40.283Z,55.91
2023-06-04T01:20:40.293Z,56.11
2023-06-04T01:21:40.275Z,55.60
2023-06-04T01:22:40.282Z,55.80
2023-06-04T01:23:40.415Z,54.28
2023-06-04T01:24:40.255Z,55.60
2023-06-04T01:25:40.325Z,56.01
2023-06-04T01:26:40.207Z,55.40
2023-06-04T01:27:40.215Z,55.91
2023-06-04T01:28:40.182Z,56.82
2023-06-04T01:29:40.199Z,57.03
2023-06-04T01:30:40.150Z,57.12
2023-06-04T01:31:40.187Z,57.43
2023-06-04T01:32:40.184Z,57.03
2023-06-04T01:33:40.123Z,56.21
2023-06-04T01:34:40.158Z,57.12
2023-06-04T01:35:40.126Z,57.97
2023-06-04T01:36:40.135Z,57.05
2023-06-04T01:37:40.120Z,55.12
2023-06-04T01:38:40.049Z,55.83
2023-06-04T01:39:40.130Z,55.93
2023-06-04T01:40:40.042Z,56.34
2023-06-04T01:41:40.055Z,57.66
2023-06-04T01:42:40.023Z,57.86
2023-06-04T01:43:40.060Z,57.76
2023-06-04T01:44:39.983Z,59.18
2023-06-04T01:45:39.979Z,59.59
2023-06-04T01:46:40.720Z,59.79
2023-06-04T01:47:39.998Z,60.71
2023-06-04T01:48:39.956Z,60.91
2023-06-04T01:49:39.923Z,60.30
2023-06-04T01:50:39.936Z,59.39
2023-06-04T01:51:39.887Z,59.08
2023-06-04T01:52:39.893Z,58.58
2023-06-04T01:53:39.925Z,59.08
2023-06-04T01:54:39.852Z,58.80
2023-06-04T01:55:39.886Z,56.87
2023-06-04T01:56:39.844Z,58.80
2023-06-04T01:57:39.866Z,59.31
2023-06-04T01:58:39.844Z,58.80
2023-06-04T01:59:39.840Z,58.40
2023-06-04T02:00:39.785Z,59.52
2023-06-04T02:01:39.784Z,58.91
2023-06-04T02:02:39.955Z,59.21
2023-06-04T02:03:39.797Z,58.33
2023-06-04T02:04:39.742Z,57.41
2023-06-04T02:05:39.754Z,57.31
2023-06-04T02:06:39.773Z,58.02
2023-06-04T02:07:39.818Z,57.21
2023-06-04T02:08:39.759Z,59.54
2023-06-04T02:09:39.692Z,59.84
2023-06-04T02:10:39.696Z,58.94
2023-06-04T02:11:39.643Z,57.41
2023-06-04T02:12:39.634Z,57.61
2023-06-04T02:13:39.640Z,58.63
2023-06-04T02:14:39.667Z,60.15
2023-06-04T02:15:39.641Z,59.95
2023-06-04T02:16:39.671Z,61.27
2023-06-04T02:17:39.592Z,62.70
2023-06-04T02:18:39.574Z,62.90
2023-06-04T02:19:39.588Z,62.59
2023-06-04T02:20:39.563Z,61.27
2023-06-04T02:21:39.528Z,61.07
2023-06-04T02:22:39.526Z,59.95
2023-06-04T02:23:39.586Z,60.36
2023-06-04T02:24:39.490Z,62.39
2023-06-04T02:25:39.566Z,62.49
2023-06-04T02:26:39.543Z,62.29
2023-06-04T02:27:39.450Z,62.70
2023-06-04T02:28:39.445Z,62.18
2023-06-04T02:29:39.427Z,62.41
2023-06-04T02:30:39.455Z,62.82
2023-06-04T02:31:39.463Z,61.91
2023-06-04T02:32:39.431Z,60.89
2023-06-04T02:33:39.395Z,58.86
2023-06-04T02:34:39.470Z,57.95
2023-06-04T02:35:39.355Z,60.28
2023-06-04T02:36:39.355Z,60.79
2023-06-04T02:37:39.320Z,62.82
2023-06-04T02:38:39.381Z,63.02
2023-06-04T02:39:39.303Z,63.23
2023-06-04T02:40:39.286Z,63.54
2023-06-04T02:41:39.266Z,64.76
2023-06-04T02:42:39.272Z,63.84
2023-06-04T02:43:39.245Z,62.14
2023-06-04T02:44:39.243Z,62.65
2023-06-04T02:45:39.261Z,63.46
2023-06-04T02:46:39.216Z,62.96
2023-06-04T02:47:39.226Z,62.35
2023-06-04T02:48:39.249Z,62.96
2023-06-04T02:49:39.165Z,62.65
2023-06-04T02:50:39.173Z,61.63
2023-06-04T02:51:39.196Z,60.72
2023-06-04T02:52:39.175Z,62.45
2023-06-04T02:53:39.138Z,61.94
2023-06-04T02:54:39.163Z,62.37
2023-06-04T02:55:39.077Z,63.59
2023-06-04T02:56:39.090Z,60.54
2023-06-04T02:57:39.041Z,61.76
2023-06-04T02:58:39.054Z,61.25
2023-06-04T02:59:39.026Z,59.22
2023-06-04T03:00:39.074Z,59.42
2023-06-04T03:01:39.069Z,59.93
2023-06-04T03:02:39.027Z,59.53
2023-06-04T03:03:39.008Z,59.22
2023-06-04T03:04:39.005Z,59.83
2023-06-04T03:05:38.987Z,63.19
2023-06-04T03:06:38.947Z,64.00
2023-06-04T03:07:38.940Z,61.76
2023-06-04T03:08:39.009Z,63.39
2023-06-04T03:09:39.064Z,65.43
2023-06-04T03:10:38.888Z,65.12
2023-06-04T03:11:38.957Z,63.49
2023-06-04T03:12:38.912Z,62.78
2023-06-04T03:13:38.844Z,63.09
2023-06-04T03:14:38.832Z,64.11
2023-06-04T03:15:38.854Z,64.51
2023-06-04T03:16:38.830Z,64.31
2023-06-04T03:17:38.985Z,63.19
2023-06-04T03:18:38.870Z,62.78
2023-06-04T03:19:38.774Z,63.09
2023-06-04T03:20:38.761Z,63.22
2023-06-04T03:21:38.770Z,64.03
2023-06-04T03:22:38.753Z,64.44
2023-06-04T03:23:38.830Z,64.23
2023-06-04T03:24:38.716Z,64.84
2023-06-04T03:25:38.714Z,65.77
2023-06-04T03:26:38.701Z,66.07
2023-06-04T03:27:38.737Z,66.27
2023-06-04T03:28:38.669Z,65.16
2023-06-04T03:29:38.802Z,64.54
2023-06-04T03:30:38.726Z,64.54
2023-06-04T03:31:38.727Z,66.07
2023-06-04T03:32:38.736Z,65.97
2023-06-04T03:33:38.717Z,65.28
2023-06-04T03:34:38.589Z,65.19
2023-06-04T03:35:38.681Z,65.80
2023-06-04T03:36:38.577Z,65.08
2023-06-04T03:37:38.549Z,64.67
2023-06-04T03:38:38.546Z,66.20
2023-06-04T03:39:38.583Z,64.06
2023-06-04T03:40:38.588Z,65.28
2023-06-04T03:41:38.545Z,65.80
2023-06-04T03:42:38.486Z,66.41
2023-06-04T03:43:38.489Z,67.73
2023-06-04T03:44:38.484Z,68.85
2023-06-04T03:45:38.505Z,69.46
2023-06-04T03:46:38.471Z,68.13
2023-06-04T03:47:38.557Z,66.20
2023-06-04T03:48:38.472Z,65.22
2023-06-04T03:49:38.427Z,65.31
2023-06-04T03:50:38.446Z,64.40
2023-06-04T03:51:38.377Z,61.75
2023-06-04T03:52:38.365Z,65.11
2023-06-04T03:53:38.470Z,65.72
2023-06-04T03:54:38.425Z,64.90
2023-06-04T03:55:38.396Z,62.87
2023-06-04T03:56:38.342Z,63.28
2023-06-04T03:57:38.334Z,62.05
2023-06-04T03:58:38.311Z,61.44
2023-06-04T03:59:38.311Z,60.53
2023-06-04T04:00:38.304Z,60.22
2023-06-04T04:01:38.361Z,59.58
2023-06-04T04:02:38.550Z,59.38
2023-06-04T04:03:38.329Z,60.70
2023-06-04T04:04:38.233Z,62.13
2023-06-04T04:05:38.191Z,64.47
2023-06-04T04:06:38.214Z,65.89
2023-06-04T04:07:38.188Z,64.78
2023-06-04T04:08:38.270Z,66.50
2023-06-04T04:09:38.129Z,66.71
2023-06-04T04:10:38.120Z,66.71
2023-06-04T04:11:38.159Z,67.22
2023-06-04T04:12:38.166Z,66.50
2023-06-04T04:13:38.165Z,65.59
2023-06-04T04:14:38.088Z,65.80
2023-06-04T04:15:38.087Z,66.41
2023-06-04T04:16:38.120Z,66.50
2023-06-04T04:17:38.090Z,66.41
2023-06-04T04:18:38.049Z,66.71
2023-06-04T04:19:38.034Z,67.93
2023-06-04T04:20:37.982Z,67.83
2023-06-04T04:21:38.041Z,67.32
2023-06-04T04:22:37.987Z,67.32
2023-06-04T04:23:38.005Z,67.52
2023-06-04T04:24:38.003Z,66.20
2023-06-04T04:25:37.941Z,65.59
2023-06-04T04:26:37.915Z,63.65
2023-06-04T04:27:37.895Z,64.78
2023-06-04T04:28:38.006Z,66.20
2023-06-04T04:29:37.883Z,66.30
2023-06-04T04:30:37.916Z,67.73
2023-06-04T04:31:37.881Z,64.87
2023-06-04T04:32:37.874Z,64.47
2023-06-04T04:33:37.993Z,64.57
2023-06-04T04:34:37.832Z,63.56
2023-06-04T04:35:37.885Z,60.91
2023-06-04T04:36:37.875Z,61.61
2023-06-04T04:37:37.786Z,60.80
2023-06-04T04:38:37.893Z,60.60
2023-06-04T04:39:37.747Z,59.28
2023-06-04T04:40:37.767Z,60.30
2023-06-04T04:41:37.787Z,60.39
2023-06-04T04:42:37.752Z,59.78
2023-06-04T04:43:37.704Z,60.06
2023-06-04T04:44:37.685Z,60.88
2023-06-04T04:45:37.695Z,60.77
2023-06-04T04:46:37.737Z,59.75
2023-06-04T04:47:37.778Z,59.45
2023-06-04T04:48:37.726Z,59.96
2023-06-04T04:49:37.646Z,62.81
2023-06-04T04:50:37.656Z,59.66
2023-06-04T04:51:37.687Z,60.37
2023-06-04T04:52:37.611Z,59.66
2023-06-04T04:53:37.596Z,61.87
2023-06-04T04:54:37.622Z,60.24
2023-06-04T04:55:37.636Z,59.63
2023-06-04T04:56:37.571Z,58.81
2023-06-04T04:57:37.534Z,58.92
2023-06-04T04:58:37.519Z,58.51
2023-06-04T04:59:37.507Z,58.61
2023-06-04T05:00:37.481Z,58.81
2023-06-04T05:01:37.556Z,59.42
2023-06-04T05:02:37.575Z,59.73
2023-06-04T05:03:37.456Z,62.07
2023-06-04T05:04:37.503Z,59.53
2023-06-04T05:05:37.432Z,58.71
2023-06-04T05:06:37.440Z,58.81
2023-06-04T05:07:37.402Z,59.22
2023-06-04T05:08:37.450Z,58.58
2023-06-04T05:09:37.383Z,59.19
2023-06-04T05:10:37.404Z,59.09
2023-06-04T05:11:37.395Z,58.78
2023-06-04T05:12:37.330Z,58.17
2023-06-04T05:13:37.329Z,58.69
2023-06-04T05:14:37.381Z,58.17
2023-06-04T05:15:37.313Z,59.09
2023-06-04T05:16:37.291Z,59.39
2023-06-04T05:17:37.279Z,58.17
2023-06-04T05:18:37.268Z,60.00
2023-06-04T05:19:37.254Z,58.69
2023-06-04T05:20:37.245Z,58.17
2023-06-04T05:21:37.238Z,58.17
2023-06-04T05:22:37.234Z,59.80
2023-06-04T05:23:37.249Z,63.16
2023-06-04T05:24:37.241Z,62.24
2023-06-04T05:25:37.168Z,60.82
2023-06-04T05:26:37.157Z,58.69
2023-06-04T05:27:37.163Z,60.00
2023-06-04T05:28:37.227Z,59.16
2023-06-04T05:29:37.139Z,58.86
2023-06-04T05:30:37.112Z,58.25
2023-06-04T05:31:37.406Z,57.13
2023-06-04T05:32:37.106Z,57.64
2023-06-04T05:33:37.073Z,60.38
2023-06-04T05:34:37.062Z,58.35
2023-06-04T05:35:37.018Z,59.77
2023-06-04T05:36:37.016Z,60.99
2023-06-04T05:37:36.993Z,60.08
2023-06-04T05:38:36.995Z,62.32
2023-06-04T05:39:36.988Z,59.37
2023-06-04T05:40:36.962Z,58.86
2023-06-04T05:41:36.997Z,58.35
2023-06-04T05:42:36.972Z,58.73
2023-06-04T05:43:36.950Z,58.94
2023-06-04T05:44:36.937Z,57.81
2023-06-04T05:45:37.029Z,57.00
2023-06-04T05:46:36.956Z,56.80
2023-06-04T05:47:36.917Z,57.71
2023-06-04T05:48:36.858Z,56.60
2023-06-04T05:49:36.925Z,57.10
2023-06-04T05:50:36.852Z,56.39
2023-06-04T05:51:36.894Z,57.10
2023-06-04T05:52:36.891Z,57.21
2023-06-04T05:53:36.825Z,57.38
2023-06-04T05:54:37.879Z,57.18
2023-06-04T05:55:38.601Z,58.09
2023-06-04T05:56:36.803Z,57.89
2023-06-04T05:57:36.817Z,57.99
2023-06-04T05:58:36.761Z,57.79
2023-06-04T05:59:36.762Z,58.50
2023-06-04T06:00:36.727Z,58.60
2023-06-04T06:01:36.828Z,58.80
2023-06-04T06:02:36.916Z,57.59
2023-06-04T06:03:36.760Z,60.40
2023-06-04T06:04:36.943Z,59.39
2023-06-04T06:05:36.674Z,61.32
2023-06-04T06:06:36.690Z,60.30
2023-06-04T06:07:36.729Z,61.21
2023-06-04T06:08:36.621Z,61.52
2023-06-04T06:09:36.653Z,58.88
2023-06-04T06:10:36.639Z,58.67
2023-06-04T06:11:36.692Z,57.35
2023-06-04T06:12:36.574Z,57.56
2023-06-04T06:13:36.562Z,56.41
2023-06-04T06:14:36.535Z,56.92
2023-06-04T06:15:36.588Z,57.12
2023-06-04T06:16:36.512Z,57.84
2023-06-04T06:17:36.532Z,58.04
2023-06-04T06:18:36.510Z,59.56
2023-06-04T06:19:36.526Z,59.16
2023-06-04T06:20:36.471Z,60.04
2023-06-04T06:21:36.460Z,58.82
2023-06-04T06:22:36.473Z,60.65
2023-06-04T06:23:36.463Z,59.03
2023-06-04T06:24:36.461Z,58.62
2023-06-04T06:25:36.444Z,57.60
2023-06-04T06:26:36.393Z,58.52
2023-06-04T06:27:36.385Z,56.59
2023-06-04T06:28:36.368Z,56.39
2023-06-04T06:29:36.383Z,57.20
2023-06-04T06:30:36.364Z,57.20
2023-06-04T06:31:36.403Z,57.17
2023-06-04T06:32:36.382Z,58.39
2023-06-04T06:33:36.373Z,59.10
2023-06-04T06:34:36.281Z,58.39
2023-06-04T06:35:36.288Z,57.88
2023-06-04T06:36:36.283Z,56.77
2023-06-04T06:37:36.299Z,55.96
2023-06-04T06:38:36.356Z,57.28
2023-06-04T06:39:36.223Z,57.88
2023-06-04T06:40:36.196Z,57.78
2023-06-04T06:41:36.228Z,59.91
2023-06-04T06:42:36.326Z,58.09
2023-06-04T06:43:36.184Z,57.88
2023-06-04T06:44:36.367Z,58.29
2023-06-04T06:45:37.964Z,57.75
2023-06-04T06:46:36.197Z,57.04
2023-06-04T06:47:36.305Z,57.75
2023-06-04T06:48:36.111Z,55.83
2023-06-04T06:49:36.102Z,57.86
2023-06-04T06:50:36.109Z,55.93
2023-06-04T06:51:36.145Z,57.24
2023-06-04T06:52:36.086Z,57.86
2023-06-04T06:53:36.062Z,56.74
2023-06-04T06:54:36.090Z,57.86
2023-06-04T06:55:36.040Z,59.58
2023-06-04T06:56:36.032Z,56.64
2023-06-04T06:57:36.069Z,57.04
2023-06-04T06:58:35.966Z,56.84
2023-06-04T06:59:36.006Z,57.02
2023-06-04T07:00:35.991Z,58.23
2023-06-04T07:01:35.982Z,62.29
2023-06-04T07:02:36.090Z,61.17
2023-06-04T07:03:35.945Z,60.16
2023-06-04T07:04:35.922Z,60.86
2023-06-04T07:05:35.911Z,59.45
2023-06-04T07:06:35.904Z,59.45
2023-06-04T07:07:35.897Z,58.64
2023-06-04T07:08:35.886Z,59.65
2023-06-04T07:09:35.898Z,61.07
2023-06-04T07:10:35.871Z,60.97
2023-06-04T07:11:35.837Z,58.94
2023-06-04T07:12:35.847Z,60.16
2023-06-04T07:13:35.832Z,61.04
2023-06-04T07:14:35.803Z,59.52
2023-06-04T07:15:35.791Z,56.99
2023-06-04T07:16:35.831Z,56.38
2023-06-04T07:17:35.855Z,56.28
2023-06-04T07:18:35.726Z,58.00
2023-06-04T07:19:35.775Z,57.20
2023-06-04T07:20:35.727Z,59.32
2023-06-04T07:21:35.726Z,58.11
2023-06-04T07:22:35.692Z,58.99
2023-06-04T07:23:35.757Z,60.91
2023-06-04T07:24:35.659Z,57.98
2023-06-04T07:25:35.657Z,57.37
2023-06-04T07:26:35.662Z,58.69
2023-06-04T07:27:35.692Z,56.86
2023-06-04T07:28:35.603Z,58.48
2023-06-04T07:29:35.603Z,56.94
2023-06-04T07:30:35.634Z,56.63
2023-06-04T07:31:35.704Z,56.94
2023-06-04T07:32:35.606Z,55.11
2023-06-04T07:33:35.558Z,55.22
2023-06-04T07:34:35.541Z,54.51
2023-06-04T07:35:35.538Z,55.40
2023-06-04T07:36:35.490Z,54.49
2023-06-04T07:37:35.525Z,54.18
2023-06-04T07:38:35.503Z,54.38
2023-06-04T07:39:35.529Z,53.17
2023-06-04T07:40:35.450Z,53.98
2023-06-04T07:41:35.506Z,53.75
2023-06-04T07:42:35.422Z,53.34
2023-06-04T07:43:35.427Z,55.16
2023-06-04T07:44:35.430Z,56.38
2023-06-04T07:45:36.261Z,54.25
2023-06-04T07:46:35.536Z,55.57
2023-06-04T07:47:35.452Z,55.67
2023-06-04T07:48:35.384Z,56.27
2023-06-04T07:49:35.348Z,56.27
2023-06-04T07:50:37.026Z,54.25
2023-06-04T07:51:35.371Z,54.05
2023-06-04T07:52:35.327Z,54.86
2023-06-04T07:53:35.280Z,54.16
2023-06-04T07:54:35.288Z,55.34
2023-06-04T07:55:35.289Z,54.33
2023-06-04T07:56:35.281Z,54.13
2023-06-04T07:57:35.260Z,54.63
2023-06-04T07:58:35.250Z,56.35
2023-06-04T07:59:35.249Z,57.97
2023-06-04T08:00:35.190Z,56.15
2023-06-04T08:01:35.267Z,55.41
2023-06-04T08:02:35.265Z,55.11
2023-06-04T08:03:35.342Z,54.81
2023-06-04T08:04:35.233Z,57.84
2023-06-04T08:05:35.188Z,56.02
2023-06-04T08:06:35.112Z,54.21
2023-06-04T08:07:35.132Z,54.08
2023-06-04T08:08:35.133Z,57.21
2023-06-04T08:09:35.098Z,58.22
2023-06-04T08:10:35.065Z,55.69
2023-06-04T08:11:35.063Z,54.58
2023-06-04T08:12:35.058Z,54.58
2023-06-04T08:13:35.084Z,54.38
2023-06-04T08:14:35.049Z,53.78
2023-06-04T08:15:34.999Z,53.27
2023-06-04T08:16:35.043Z,53.58
2023-06-04T08:17:35.087Z,55.36
2023-06-04T08:18:35.013Z,57.98
2023-06-04T08:19:34.973Z,55.46
2023-06-04T08:20:34.930Z,56.88
2023-06-04T08:21:35.047Z,56.07
2023-06-04T08:22:34.928Z,54.25
2023-06-04T08:23:34.952Z,54.25
2023-06-04T08:24:34.894Z,53.75
2023-06-04T08:25:34.897Z,55.26
2023-06-04T08:26:34.854Z,56.27
2023-06-04T08:27:34.927Z,56.27
2023-06-04T08:28:34.882Z,54.63
2023-06-04T08:29:34.828Z,56.15
2023-06-04T08:30:34.913Z,54.53
2023-06-04T08:31:34.835Z,53.72
2023-06-04T08:32:34.828Z,55.14
2023-06-04T08:33:34.785Z,55.54
2023-06-04T08:34:34.764Z,56.65
2023-06-04T08:35:34.761Z,57.03
2023-06-04T08:36:34.733Z,54.41
2023-06-04T08:37:34.710Z,53.50
2023-06-04T08:38:34.727Z,54.41
2023-06-04T08:39:34.703Z,54.81
2023-06-04T08:40:34.748Z,54.91
2023-06-04T08:41:34.738Z,54.41
2023-06-04T08:42:34.674Z,58.74
2023-06-04T08:43:34.690Z,60.22
2023-06-04T08:44:34.648Z,61.53
2023-06-04T08:45:34.676Z,59.11
2023-06-04T08:46:34.599Z,56.80
2023-06-04T08:47:34.678Z,54.08
2023-06-04T08:48:34.621Z,54.88
2023-06-04T08:49:34.584Z,54.28
2023-06-04T08:50:34.577Z,57.98
2023-06-04T08:51:34.604Z,53.95
2023-06-04T08:52:34.588Z,53.65
2023-06-04T08:53:34.632Z,54.35
2023-06-04T08:54:34.550Z,52.64
2023-06-04T08:55:34.502Z,54.75
2023-06-04T08:56:34.521Z,54.05
2023-06-04T08:57:34.504Z,55.43
2023-06-04T08:58:34.467Z,57.35
2023-06-04T08:59:34.447Z,57.35
2023-06-04T09:00:34.502Z,55.23
2023-06-04T09:01:34.525Z,56.84
2023-06-04T09:02:34.442Z,55.33
2023-06-04T09:03:34.471Z,53.63
2023-06-04T09:04:34.378Z,54.73
2023-06-04T09:05:34.372Z,57.15
2023-06-04T09:06:34.388Z,54.63
2023-06-04T09:07:34.406Z,53.92
2023-06-04T09:08:34.356Z,52.39
2023-06-04T09:09:34.361Z,52.49
2023-06-04T09:10:34.359Z,54.50
2023-06-04T09:11:34.272Z,51.99
2023-06-04T09:12:34.318Z,54.71
2023-06-04T09:13:34.278Z,55.88
2023-06-04T09:14:34.271Z,52.77
2023-06-04T09:15:34.243Z,51.26
2023-06-04T09:16:34.426Z,51.16
2023-06-04T09:17:34.320Z,51.76
2023-06-04T09:18:34.218Z,51.36
2023-06-04T09:19:34.212Z,52.34
2023-06-04T09:20:34.180Z,53.45
2023-06-04T09:21:34.182Z,51.84
2023-06-04T09:22:34.195Z,55.26
2023-06-04T09:23:34.277Z,53.45
2023-06-04T09:24:34.176Z,54.85
2023-06-04T09:25:34.139Z,56.46
2023-06-04T09:26:34.068Z,55.55
2023-06-04T09:27:34.168Z,53.95
2023-06-04T09:28:34.108Z,53.14
2023-06-04T09:29:34.045Z,53.95
2023-06-04T09:30:34.059Z,51.54
2023-06-04T09:31:34.115Z,54.15
2023-06-04T09:32:34.086Z,49.30
2023-06-04T09:33:34.030Z,49.30
2023-06-04T09:34:34.047Z,49.80
2023-06-04T09:35:33.976Z,49.91
2023-06-04T09:36:34.023Z,50.91
2023-06-04T09:37:33.956Z,51.69
2023-06-04T09:38:34.251Z,51.19
2023-06-04T09:39:33.962Z,49.18
2023-06-04T09:40:33.931Z,47.77
2023-06-04T09:41:33.940Z,50.06
2023-06-04T09:42:33.895Z,49.05
2023-06-04T09:43:33.902Z,51.06
2023-06-04T09:44:33.868Z,51.26
2023-06-04T09:45:33.900Z,51.76
2023-06-04T09:46:33.986Z,50.56
2023-06-04T09:47:33.894Z,53.07
2023-06-04T09:48:33.839Z,53.27
2023-06-04T09:49:33.905Z,52.07
2023-06-04T09:50:33.804Z,53.77
2023-06-04T09:51:33.807Z,53.97
2023-06-04T09:52:33.773Z,52.17
2023-06-04T09:53:33.815Z,50.26
2023-06-04T09:54:33.719Z,49.26
2023-06-04T09:55:33.740Z,54.17
2023-06-04T09:56:33.712Z,52.97
2023-06-04T09:57:33.744Z,49.36
2023-06-04T09:58:33.759Z,47.75
2023-06-04T09:59:33.651Z,48.16
2023-06-04T10:00:33.705Z,49.56
2023-06-04T10:01:33.764Z,51.37
2023-06-04T10:02:33.738Z,52.87
2023-06-04T10:03:33.746Z,53.07
2023-06-04T10:04:33.751Z,53.27
2023-06-04T10:05:33.667Z,50.16
2023-06-04T10:06:33.601Z,48.25
2023-06-04T10:07:33.604Z,45.54
2023-06-04T10:08:33.540Z,46.93
2023-06-04T10:09:33.646Z,43.82
2023-06-04T10:10:33.607Z,42.82
2023-06-04T10:11:33.530Z,43.22
2023-06-04T10:12:33.531Z,45.00
2023-06-04T10:13:33.485Z,45.10
2023-06-04T10:14:33.480Z,45.00
2023-06-04T10:15:33.575Z,46.41
2023-06-04T10:16:34.829Z,43.12
2023-06-04T10:17:33.576Z,43.92
2023-06-04T10:18:33.557Z,42.91
2023-06-04T10:19:33.442Z,42.52
2023-06-04T10:20:33.474Z,41.69
2023-06-04T10:21:33.563Z,42.30
2023-06-04T10:22:33.421Z,41.39
2023-06-04T10:23:33.472Z,43.58
2023-06-04T10:24:33.375Z,44.88
2023-06-04T10:25:33.350Z,45.98
2023-06-04T10:26:33.348Z,44.58
2023-06-04T10:27:33.340Z,41.67
2023-06-04T10:28:33.352Z,44.48
2023-06-04T10:29:33.301Z,43.58
2023-06-04T10:30:33.288Z,44.38
2023-06-04T10:31:33.290Z,43.38
2023-06-04T10:32:33.553Z,41.77
2023-06-04T10:33:33.278Z,44.58
2023-06-04T10:34:33.345Z,47.38
2023-06-04T10:35:33.223Z,45.38
2023-06-04T10:36:33.210Z,44.58
2023-06-04T10:37:33.443Z,47.78
2023-06-04T10:38:33.204Z,47.08
2023-06-04T10:39:33.172Z,44.40
2023-06-04T10:40:33.158Z,47.11
2023-06-04T10:41:33.163Z,45.60
2023-06-04T10:42:33.147Z,42.80
2023-06-04T10:43:33.204Z,41.89
2023-06-04T10:44:33.115Z,41.07
2023-06-04T10:45:33.362Z,40.17
2023-06-04T10:46:33.164Z,40.97
2023-06-04T10:47:33.119Z,39.45
2023-06-04T10:48:33.107Z,38.25
2023-06-04T10:49:33.056Z,39.85
2023-06-04T10:50:33.023Z,41.46
2023-06-04T10:51:33.033Z,42.93
2023-06-04T10:52:32.991Z,42.33
2023-06-04T10:53:33.014Z,44.24
2023-06-04T10:54:33.088Z,44.93
2023-06-04T10:55:32.977Z,43.66
2023-06-04T10:56:33.004Z,40.55
2023-06-04T10:57:33.047Z,38.95
2023-06-04T10:58:32.987Z,39.15
2023-06-04T10:59:32.913Z,40.93
2023-06-04T11:00:32.941Z,41.03
2023-06-04T11:01:33.008Z,43.33
2023-06-04T11:02:32.912Z,43.33
2023-06-04T11:03:32.933Z,43.54
2023-06-04T11:04:32.973Z,41.24
2023-06-04T11:05:32.834Z,43.24
2023-06-04T11:06:32.851Z,42.32
2023-06-04T11:07:32.850Z,42.21
2023-06-04T11:08:32.864Z,40.61
2023-06-04T11:09:34.524Z,38.91
2023-06-04T11:10:32.768Z,41.02
2023-06-04T11:11:32.799Z,44.21
2023-06-04T11:12:32.788Z,43.41
2023-06-04T11:13:32.742Z,46.51
2023-06-04T11:14:32.854Z,46.04
2023-06-04T11:15:32.696Z,45.94
2023-06-04T11:16:32.930Z,42.93
2023-06-04T11:17:32.763Z,41.43
2023-06-04T11:18:32.692Z,40.33
2023-06-04T11:19:32.646Z,41.82
2023-06-04T11:20:32.723Z,43.01
2023-06-04T11:21:32.688Z,46.81
2023-06-04T11:22:32.673Z,48.61
2023-06-04T11:23:32.758Z,41.41
2023-06-04T11:24:32.841Z,40.01
2023-06-04T11:25:32.645Z,41.61
2023-06-04T11:26:32.619Z,41.91
2023-06-04T11:27:36.766Z,41.41
2023-06-04T11:28:32.619Z,44.71
2023-06-04T11:29:32.509Z,40.71
2023-06-04T11:30:32.560Z,42.32
2023-06-04T11:31:32.569Z,41.91
2023-06-04T11:32:32.533Z,47.31
2023-06-04T11:33:32.551Z,42.61
2023-06-04T11:34:32.455Z,41.41
2023-06-04T11:35:32.470Z,40.50
2023-06-04T11:36:32.440Z,40.69
2023-06-04T11:37:32.416Z,42.10
2023-06-04T11:38:32.445Z,44.29
2023-06-04T11:39:32.496Z,43.99
2023-06-04T11:40:32.432Z,41.60
2023-06-04T11:41:32.473Z,40.69
2023-06-04T11:42:32.377Z,44.39
2023-06-04T11:43:32.427Z,44.39
2023-06-04T11:44:32.409Z,42.10
2023-06-04T11:45:32.314Z,40.00
2023-06-04T11:46:32.379Z,41.30
2023-06-04T11:47:32.460Z,43.98
2023-06-04T11:48:32.445Z,47.57
2023-06-04T11:49:32.303Z,44.67
2023-06-04T11:50:32.299Z,44.17
2023-06-04T11:51:32.228Z,41.77
2023-06-04T11:52:32.237Z,40.78
2023-06-04T11:53:32.294Z,40.08
2023-06-04T11:54:32.202Z,44.78
2023-06-04T11:55:32.200Z,39.78
2023-06-04T11:56:32.230Z,40.25
2023-06-04T11:57:32.252Z,38.56
2023-06-04T11:58:32.196Z,38.06
2023-06-04T11:59:32.313Z,39.76
2023-06-04T12:00:32.162Z,40.16
2023-06-04T12:01:32.181Z,42.85
2023-06-04T12:02:32.176Z,38.66
2023-06-04T12:03:32.178Z,38.36
2023-06-04T12:04:32.115Z,40.06
2023-06-04T12:05:32.188Z,42.25
2023-06-04T12:06:32.090Z,41.55
2023-06-04T12:07:32.056Z,41.55
2023-06-04T12:08:32.745Z,43.05
2023-06-04T12:09:32.037Z,42.85
2023-06-04T12:10:32.017Z,44.45
2023-06-04T12:11:31.988Z,45.55
2023-06-04T12:12:32.018Z,40.36
2023-06-04T12:13:31.988Z,40.16
2023-06-04T12:14:32.150Z,38.76
2023-06-04T12:15:31.982Z,37.76
2023-06-04T12:16:31.994Z,38.16
2023-06-04T12:17:31.956Z,44.65
2023-06-04T12:18:31.999Z,39.64
2023-06-04T12:19:31.895Z,42.73
2023-06-04T12:20:31.870Z,41.63
2023-06-04T12:21:31.862Z,40.44
2023-06-04T12:22:31.931Z,42.03
2023-06-04T12:23:31.874Z,37.64
2023-06-04T12:24:31.890Z,41.24
2023-06-04T12:25:31.818Z,42.54
2023-06-04T12:26:31.875Z,43.93
2023-06-04T12:27:31.797Z,41.63
2023-06-04T12:28:32.135Z,42.83
2023-06-04T12:29:31.801Z,43.53
2023-06-04T12:30:31.776Z,44.13
2023-06-04T12:31:31.831Z,44.23
2023-06-04T12:32:31.768Z,43.83
2023-06-04T12:33:31.763Z,41.93
2023-06-04T12:34:31.737Z,43.83
2023-06-04T12:35:31.723Z,44.13
2023-06-04T12:36:31.685Z,42.93
2023-06-04T12:37:31.671Z,42.54
2023-06-04T12:38:31.730Z,39.04
2023-06-04T12:39:32.010Z,37.34
2023-06-04T12:40:31.664Z,36.04
2023-06-04T12:41:31.654Z,35.53
2023-06-04T12:42:31.635Z,35.83
2023-06-04T12:43:31.722Z,36.80
2023-06-04T12:44:34.635Z,37.40
2023-06-04T12:45:31.562Z,37.79
2023-06-04T12:46:31.626Z,35.89
2023-06-04T12:47:31.616Z,36.09
2023-06-04T12:48:31.541Z,37.27
2023-06-04T12:49:31.587Z,35.97
2023-06-04T12:50:31.530Z,33.88
2023-06-04T12:51:31.622Z,33.86
2023-06-04T12:52:31.510Z,33.86